sensor_id;sensor_type;location;lat;lon;timestamp;temperature;humidity
29571;DHT22;16814;52.118;11.436;2023-05-07T00:00:10;8.70;99.90
29571;DHT22;16814;52.118;11.436;2023-05-07T00:02:38;8.60;99.90
29571;DHT22;16814;52.118;11.436;2023-05-07T00:05:05;8.70;99.90
29571;DHT22;16814;52.118;11.436;2023-05-07T00:07:34;8.60;99.90
29571;DHT22;16814;52.118;11.436;2023-05-07T00:10:05;8.60;99.90
29571;DHT22;16814;52.118;11.436;2023-05-07T00:12:33;8.60;99.90
29571;DHT22;16814;52.118;11.436;2023-05-07T00:15:02;8.60;99.90
29571;DHT22;16814;52.118;11.436;2023-05-07T00:17:30;8.60;99.90
29571;DHT22;16814;52.118;11.436;2023-05-07T00:19:58;8.60;99.90
29571;DHT22;16814;52.118;11.436;2023-05-07T00:22:27;8.70;99.90
29571;DHT22;16814;52.118;11.436;2023-05-07T00:24:58;8.70;99.90
29571;DHT22;16814;52.118;11.436;2023-05-07T00:27:25;8.60;99.90
29571;DHT22;16814;52.118;11.436;2023-05-07T00:29:53;8.50;99.90
29571;DHT22;16814;52.118;11.436;2023-05-07T00:32:21;8.50;99.90
29571;DHT22;16814;52.118;11.436;2023-05-07T00:34:48;8.50;99.90
29571;DHT22;16814;52.118;11.436;2023-05-07T00:37:15;8.40;99.90
29571;DHT22;16814;52.118;11.436;2023-05-07T00:39:43;8.50;99.90
29571;DHT22;16814;52.118;11.436;2023-05-07T00:42:08;8.40;99.90
29571;DHT22;16814;52.118;11.436;2023-05-07T00:44:34;8.30;99.90
29571;DHT22;16814;52.118;11.436;2023-05-07T00:47:05;8.30;99.90
29571;DHT22;16814;52.118;11.436;2023-05-07T00:49:41;8.40;99.90
29571;DHT22;16814;52.118;11.436;2023-05-07T00:52:14;8.50;99.90
29571;DHT22;16814;52.118;11.436;2023-05-07T00:54:41;8.40;99.90
29571;DHT22;16814;52.118;11.436;2023-05-07T00:57:10;8.40;99.90
29571;DHT22;16814;52.118;11.436;2023-05-07T00:59:38;8.40;99.90
29571;DHT22;16814;52.118;11.436;2023-05-07T01:02:17;8.40;99.90
29571;DHT22;16814;52.118;11.436;2023-05-07T01:04:44;8.50;99.90
29571;DHT22;16814;52.118;11.436;2023-05-07T01:07:10;8.40;99.90
29571;DHT22;16814;52.118;11.436;2023-05-07T01:09:38;8.30;99.90
29571;DHT22;16814;52.118;11.436;2023-05-07T01:12:05;8.30;99.90
29571;DHT22;16814;52.118;11.436;2023-05-07T01:14:35;8.30;99.90
29571;DHT22;16814;52.118;11.436;2023-05-07T01:17:08;8.40;99.90
29571;DHT22;16814;52.118;11.436;2023-05-07T01:19:36;8.40;99.90
29571;DHT22;16814;52.118;11.436;2023-05-07T01:22:09;8.30;99.90
29571;DHT22;16814;52.118;11.436;2023-05-07T01:24:38;8.40;99.90
29571;DHT22;16814;52.118;11.436;2023-05-07T01:27:05;8.20;99.90
29571;DHT22;16814;52.118;11.436;2023-05-07T01:29:30;8.20;99.90
29571;DHT22;16814;52.118;11.436;2023-05-07T01:31:59;8.20;99.90
29571;DHT22;16814;52.118;11.436;2023-05-07T01:34:28;8.10;99.90
29571;DHT22;16814;52.118;11.436;2023-05-07T01:36:59;8.20;99.90
29571;DHT22;16814;52.118;11.436;2023-05-07T01:39:27;8.30;99.90
29571;DHT22;16814;52.118;11.436;2023-05-07T01:41:55;8.30;99.90
29571;DHT22;16814;52.118;11.436;2023-05-07T01:44:31;8.40;99.90
29571;DHT22;16814;52.118;11.436;2023-05-07T01:46:59;8.40;99.90
29571;DHT22;16814;52.118;11.436;2023-05-07T01:49:26;8.40;99.90
29571;DHT22;16814;52.118;11.436;2023-05-07T01:51:53;8.40;99.90
29571;DHT22;16814;52.118;11.436;2023-05-07T01:54:19;8.30;99.90
29571;DHT22;16814;52.118;11.436;2023-05-07T01:56:47;8.40;99.90
29571;DHT22;16814;52.118;11.436;2023-05-07T01:59:14;8.40;99.90
29571;DHT22;16814;52.118;11.436;2023-05-07T02:01:42;8.30;99.90
29571;DHT22;16814;52.118;11.436;2023-05-07T02:04:08;8.20;99.90
29571;DHT22;16814;52.118;11.436;2023-05-07T02:06:36;8.30;99.90
29571;DHT22;16814;52.118;11.436;2023-05-07T02:09:04;8.40;99.90
29571;DHT22;16814;52.118;11.436;2023-05-07T02:11:42;8.40;99.90
29571;DHT22;16814;52.118;11.436;2023-05-07T02:14:07;8.50;99.90
29571;DHT22;16814;52.118;11.436;2023-05-07T02:16:34;8.40;99.90
29571;DHT22;16814;52.118;11.436;2023-05-07T02:19:02;8.30;99.90
29571;DHT22;16814;52.118;11.436;2023-05-07T02:21:28;8.40;99.90
29571;DHT22;16814;52.118;11.436;2023-05-07T02:23:53;8.40;99.90
29571;DHT22;16814;52.118;11.436;2023-05-07T02:26:19;8.50;99.90
29571;DHT22;16814;52.118;11.436;2023-05-07T02:28:46;8.50;99.90
29571;DHT22;16814;52.118;11.436;2023-05-07T02:31:14;8.50;99.90
29571;DHT22;16814;52.118;11.436;2023-05-07T02:33:42;8.40;99.90
29571;DHT22;16814;52.118;11.436;2023-05-07T02:36:11;8.50;99.90
29571;DHT22;16814;52.118;11.436;2023-05-07T02:38:38;8.60;99.90
29571;DHT22;16814;52.118;11.436;2023-05-07T02:41:06;8.60;99.90
29571;DHT22;16814;52.118;11.436;2023-05-07T02:43:32;8.50;99.90
29571;DHT22;16814;52.118;11.436;2023-05-07T02:46:03;8.50;99.90
29571;DHT22;16814;52.118;11.436;2023-05-07T02:48:32;8.50;99.90
29571;DHT22;16814;52.118;11.436;2023-05-07T02:51:01;8.50;99.90
29571;DHT22;16814;52.118;11.436;2023-05-07T02:53:30;8.60;99.90
29571;DHT22;16814;52.118;11.436;2023-05-07T02:56:03;8.60;99.90
29571;DHT22;16814;52.118;11.436;2023-05-07T02:58:30;8.70;99.90
29571;DHT22;16814;52.118;11.436;2023-05-07T03:00:58;8.60;99.90
29571;DHT22;16814;52.118;11.436;2023-05-07T03:03:26;8.50;99.90
29571;DHT22;16814;52.118;11.436;2023-05-07T03:05:52;8.50;99.90
29571;DHT22;16814;52.118;11.436;2023-05-07T03:08:19;8.40;99.90
29571;DHT22;16814;52.118;11.436;2023-05-07T03:10:46;8.40;99.90
29571;DHT22;16814;52.118;11.436;2023-05-07T03:13:11;8.40;99.90
29571;DHT22;16814;52.118;11.436;2023-05-07T03:15:38;8.40;99.90
29571;DHT22;16814;52.118;11.436;2023-05-07T03:18:06;8.40;99.90
29571;DHT22;16814;52.118;11.436;2023-05-07T03:20:32;8.40;99.90
29571;DHT22;16814;52.118;11.436;2023-05-07T03:22:58;8.40;99.90
29571;DHT22;16814;52.118;11.436;2023-05-07T03:25:27;8.40;99.90
29571;DHT22;16814;52.118;11.436;2023-05-07T03:27:57;8.40;99.90
29571;DHT22;16814;52.118;11.436;2023-05-07T03:30:25;8.30;99.90
29571;DHT22;16814;52.118;11.436;2023-05-07T03:32:50;8.20;99.90
29571;DHT22;16814;52.118;11.436;2023-05-07T03:35:17;8.20;99.90
29571;DHT22;16814;52.118;11.436;2023-05-07T03:37:45;8.30;99.90
29571;DHT22;16814;52.118;11.436;2023-05-07T03:40:12;8.30;99.90
29571;DHT22;16814;52.118;11.436;2023-05-07T03:42:40;8.30;99.90
29571;DHT22;16814;52.118;11.436;2023-05-07T03:45:08;8.40;99.90
29571;DHT22;16814;52.118;11.436;2023-05-07T03:47:37;8.30;99.90
29571;DHT22;16814;52.118;11.436;2023-05-07T03:50:05;8.40;99.90
29571;DHT22;16814;52.118;11.436;2023-05-07T03:52:32;8.30;99.90
29571;DHT22;16814;52.118;11.436;2023-05-07T03:55:01;8.40;99.90
29571;DHT22;16814;52.118;11.436;2023-05-07T03:57:29;8.40;99.90
29571;DHT22;16814;52.118;11.436;2023-05-07T03:59:57;8.50;99.90
29571;DHT22;16814;52.118;11.436;2023-05-07T04:02:23;8.40;99.90
29571;DHT22;16814;52.118;11.436;2023-05-07T04:04:49;8.40;99.90
29571;DHT22;16814;52.118;11.436;2023-05-07T04:07:15;8.50;99.90
29571;DHT22;16814;52.118;11.436;2023-05-07T04:09:43;8.40;99.90
29571;DHT22;16814;52.118;11.436;2023-05-07T04:12:12;8.40;99.90
29571;DHT22;16814;52.118;11.436;2023-05-07T04:14:40;8.40;99.90
29571;DHT22;16814;52.118;11.436;2023-05-07T04:17:05;8.30;99.90
29571;DHT22;16814;52.118;11.436;2023-05-07T04:19:35;8.30;99.90
29571;DHT22;16814;52.118;11.436;2023-05-07T04:22:03;8.20;99.90
29571;DHT22;16814;52.118;11.436;2023-05-07T04:24:33;8.30;99.90
29571;DHT22;16814;52.118;11.436;2023-05-07T04:26:58;8.30;99.90
29571;DHT22;16814;52.118;11.436;2023-05-07T04:29:27;8.30;99.90
29571;DHT22;16814;52.118;11.436;2023-05-07T04:31:55;8.40;99.90
29571;DHT22;16814;52.118;11.436;2023-05-07T04:34:24;8.40;99.90
29571;DHT22;16814;52.118;11.436;2023-05-07T04:36:49;8.30;99.90
29571;DHT22;16814;52.118;11.436;2023-05-07T04:39:16;8.30;99.90
29571;DHT22;16814;52.118;11.436;2023-05-07T04:41:43;8.30;99.90
29571;DHT22;16814;52.118;11.436;2023-05-07T04:44:11;8.30;99.90
29571;DHT22;16814;52.118;11.436;2023-05-07T04:46:38;8.30;99.90
29571;DHT22;16814;52.118;11.436;2023-05-07T04:49:07;8.40;99.90
29571;DHT22;16814;52.118;11.436;2023-05-07T04:51:33;8.40;99.90
29571;DHT22;16814;52.118;11.436;2023-05-07T04:54:00;8.40;99.90
29571;DHT22;16814;52.118;11.436;2023-05-07T04:56:28;8.40;99.90
29571;DHT22;16814;52.118;11.436;2023-05-07T04:59:02;8.40;99.90
29571;DHT22;16814;52.118;11.436;2023-05-07T05:01:29;8.40;99.90
29571;DHT22;16814;52.118;11.436;2023-05-07T05:03:56;8.30;99.90
29571;DHT22;16814;52.118;11.436;2023-05-07T05:06:24;8.30;99.90
29571;DHT22;16814;52.118;11.436;2023-05-07T05:08:50;8.40;99.90
29571;DHT22;16814;52.118;11.436;2023-05-07T05:11:17;8.40;99.90
29571;DHT22;16814;52.118;11.436;2023-05-07T05:13:44;8.40;99.90
29571;DHT22;16814;52.118;11.436;2023-05-07T05:16:16;8.40;99.90
29571;DHT22;16814;52.118;11.436;2023-05-07T05:18:43;8.30;99.90
29571;DHT22;16814;52.118;11.436;2023-05-07T05:21:09;8.40;99.90
29571;DHT22;16814;52.118;11.436;2023-05-07T05:23:37;8.50;99.90
29571;DHT22;16814;52.118;11.436;2023-05-07T05:26:06;8.50;99.90
29571;DHT22;16814;52.118;11.436;2023-05-07T05:28:33;8.50;99.90
29571;DHT22;16814;52.118;11.436;2023-05-07T05:30:58;8.50;99.90
29571;DHT22;16814;52.118;11.436;2023-05-07T05:33:25;8.50;99.90
29571;DHT22;16814;52.118;11.436;2023-05-07T05:35:58;8.50;99.90
29571;DHT22;16814;52.118;11.436;2023-05-07T05:38:25;8.60;99.90
29571;DHT22;16814;52.118;11.436;2023-05-07T05:40:52;8.60;99.90
29571;DHT22;16814;52.118;11.436;2023-05-07T05:43:17;8.60;99.90
29571;DHT22;16814;52.118;11.436;2023-05-07T05:45:43;8.60;99.90
29571;DHT22;16814;52.118;11.436;2023-05-07T05:48:11;8.50;99.90
29571;DHT22;16814;52.118;11.436;2023-05-07T05:50:41;8.50;99.90
29571;DHT22;16814;52.118;11.436;2023-05-07T05:53:08;8.50;99.90
29571;DHT22;16814;52.118;11.436;2023-05-07T05:55:35;8.50;99.90
29571;DHT22;16814;52.118;11.436;2023-05-07T05:58:01;8.50;99.90
29571;DHT22;16814;52.118;11.436;2023-05-07T06:00:29;8.60;99.90
29571;DHT22;16814;52.118;11.436;2023-05-07T06:02:58;8.50;99.90
29571;DHT22;16814;52.118;11.436;2023-05-07T06:05:26;8.40;99.90
29571;DHT22;16814;52.118;11.436;2023-05-07T06:07:53;8.50;99.90
29571;DHT22;16814;52.118;11.436;2023-05-07T06:10:21;8.40;99.90
29571;DHT22;16814;52.118;11.436;2023-05-07T06:12:52;8.50;99.90
29571;DHT22;16814;52.118;11.436;2023-05-07T06:15:19;8.60;99.90
29571;DHT22;16814;52.118;11.436;2023-05-07T06:17:46;8.60;99.90
29571;DHT22;16814;52.118;11.436;2023-05-07T06:20:12;8.60;99.90
29571;DHT22;16814;52.118;11.436;2023-05-07T06:22:39;8.60;99.90
29571;DHT22;16814;52.118;11.436;2023-05-07T06:25:05;8.60;99.90
29571;DHT22;16814;52.118;11.436;2023-05-07T06:27:32;8.60;99.90
29571;DHT22;16814;52.118;11.436;2023-05-07T06:29:58;8.70;99.90
29571;DHT22;16814;52.118;11.436;2023-05-07T06:32:25;8.70;99.90
29571;DHT22;16814;52.118;11.436;2023-05-07T06:34:50;8.80;99.90
29571;DHT22;16814;52.118;11.436;2023-05-07T06:37:18;8.80;99.90
29571;DHT22;16814;52.118;11.436;2023-05-07T06:39:45;8.70;99.90
29571;DHT22;16814;52.118;11.436;2023-05-07T06:42:12;8.60;99.90
29571;DHT22;16814;52.118;11.436;2023-05-07T06:44:39;8.70;99.90
29571;DHT22;16814;52.118;11.436;2023-05-07T06:47:05;8.80;99.90
29571;DHT22;16814;52.118;11.436;2023-05-07T06:49:32;8.80;99.90
29571;DHT22;16814;52.118;11.436;2023-05-07T06:51:59;8.80;99.90
29571;DHT22;16814;52.118;11.436;2023-05-07T06:54:27;8.90;99.90
29571;DHT22;16814;52.118;11.436;2023-05-07T06:56:55;8.80;99.90
29571;DHT22;16814;52.118;11.436;2023-05-07T06:59:25;8.80;99.90
29571;DHT22;16814;52.118;11.436;2023-05-07T07:01:50;8.80;99.90
29571;DHT22;16814;52.118;11.436;2023-05-07T07:04:17;8.80;99.90
29571;DHT22;16814;52.118;11.436;2023-05-07T07:06:55;8.80;99.90
29571;DHT22;16814;52.118;11.436;2023-05-07T07:09:24;8.80;99.90
29571;DHT22;16814;52.118;11.436;2023-05-07T07:11:51;8.90;99.90
29571;DHT22;16814;52.118;11.436;2023-05-07T07:14:19;8.90;99.90
29571;DHT22;16814;52.118;11.436;2023-05-07T07:16:46;9.00;99.90
29571;DHT22;16814;52.118;11.436;2023-05-07T07:19:13;9.00;99.90
29571;DHT22;16814;52.118;11.436;2023-05-07T07:21:41;8.90;99.90
29571;DHT22;16814;52.118;11.436;2023-05-07T07:24:07;9.00;99.90
29571;DHT22;16814;52.118;11.436;2023-05-07T07:26:36;9.00;99.90
29571;DHT22;16814;52.118;11.436;2023-05-07T07:29:03;9.10;99.90
29571;DHT22;16814;52.118;11.436;2023-05-07T07:31:35;9.10;99.90
29571;DHT22;16814;52.118;11.436;2023-05-07T07:34:01;9.20;99.90
29571;DHT22;16814;52.118;11.436;2023-05-07T07:36:28;9.20;99.90
29571;DHT22;16814;52.118;11.436;2023-05-07T07:38:57;9.20;99.90
29571;DHT22;16814;52.118;11.436;2023-05-07T07:41:22;9.20;99.90
29571;DHT22;16814;52.118;11.436;2023-05-07T07:43:50;9.20;99.90
29571;DHT22;16814;52.118;11.436;2023-05-07T07:46:17;9.30;99.90
29571;DHT22;16814;52.118;11.436;2023-05-07T07:48:46;9.30;99.90
29571;DHT22;16814;52.118;11.436;2023-05-07T07:51:13;9.40;99.90
29571;DHT22;16814;52.118;11.436;2023-05-07T07:53:39;9.40;99.90
29571;DHT22;16814;52.118;11.436;2023-05-07T07:56:07;9.30;99.90
29571;DHT22;16814;52.118;11.436;2023-05-07T07:58:35;9.30;99.90
29571;DHT22;16814;52.118;11.436;2023-05-07T08:01:02;9.30;99.90
29571;DHT22;16814;52.118;11.436;2023-05-07T08:03:28;9.30;99.90
29571;DHT22;16814;52.118;11.436;2023-05-07T08:05:53;9.30;99.90
29571;DHT22;16814;52.118;11.436;2023-05-07T08:08:20;9.30;99.90
29571;DHT22;16814;52.118;11.436;2023-05-07T08:10:46;9.40;99.90
29571;DHT22;16814;52.118;11.436;2023-05-07T08:13:13;9.40;99.90
29571;DHT22;16814;52.118;11.436;2023-05-07T08:15:39;9.50;99.90
29571;DHT22;16814;52.118;11.436;2023-05-07T08:18:06;9.50;99.90
29571;DHT22;16814;52.118;11.436;2023-05-07T08:20:32;9.50;99.90
29571;DHT22;16814;52.118;11.436;2023-05-07T08:23:00;9.40;99.90
29571;DHT22;16814;52.118;11.436;2023-05-07T08:25:26;9.50;99.90
29571;DHT22;16814;52.118;11.436;2023-05-07T08:27:51;9.50;99.90
29571;DHT22;16814;52.118;11.436;2023-05-07T08:30:20;9.60;99.90
29571;DHT22;16814;52.118;11.436;2023-05-07T08:32:47;9.60;99.90
29571;DHT22;16814;52.118;11.436;2023-05-07T08:35:14;9.50;99.90
29571;DHT22;16814;52.118;11.436;2023-05-07T08:37:40;9.50;99.90
29571;DHT22;16814;52.118;11.436;2023-05-07T08:40:06;9.40;99.90
29571;DHT22;16814;52.118;11.436;2023-05-07T08:42:37;9.40;99.90
29571;DHT22;16814;52.118;11.436;2023-05-07T08:45:10;9.40;99.90
29571;DHT22;16814;52.118;11.436;2023-05-07T08:47:47;9.50;99.90
29571;DHT22;16814;52.118;11.436;2023-05-07T08:50:17;9.50;99.90
29571;DHT22;16814;52.118;11.436;2023-05-07T08:52:45;9.60;99.90
29571;DHT22;16814;52.118;11.436;2023-05-07T08:55:13;9.70;99.90
29571;DHT22;16814;52.118;11.436;2023-05-07T08:57:41;9.90;99.90
29571;DHT22;16814;52.118;11.436;2023-05-07T09:00:08;9.90;99.90
29571;DHT22;16814;52.118;11.436;2023-05-07T09:02:37;9.90;99.90
29571;DHT22;16814;52.118;11.436;2023-05-07T09:05:05;9.90;99.90
29571;DHT22;16814;52.118;11.436;2023-05-07T09:07:34;9.90;99.90
29571;DHT22;16814;52.118;11.436;2023-05-07T09:10:02;9.90;99.90
29571;DHT22;16814;52.118;11.436;2023-05-07T09:12:30;9.90;99.90
29571;DHT22;16814;52.118;11.436;2023-05-07T09:14:58;9.90;99.90
29571;DHT22;16814;52.118;11.436;2023-05-07T09:17:29;9.90;99.90
29571;DHT22;16814;52.118;11.436;2023-05-07T09:19:56;10.00;99.90
29571;DHT22;16814;52.118;11.436;2023-05-07T09:22:22;9.90;99.90
29571;DHT22;16814;52.118;11.436;2023-05-07T09:24:49;10.00;99.90
29571;DHT22;16814;52.118;11.436;2023-05-07T09:27:19;10.10;99.90
29571;DHT22;16814;52.118;11.436;2023-05-07T09:29:46;10.10;99.90
29571;DHT22;16814;52.118;11.436;2023-05-07T09:32:15;10.10;99.90
29571;DHT22;16814;52.118;11.436;2023-05-07T09:34:44;10.10;99.90
29571;DHT22;16814;52.118;11.436;2023-05-07T09:37:13;10.10;99.90
29571;DHT22;16814;52.118;11.436;2023-05-07T09:42:11;10.10;99.90
29571;DHT22;16814;52.118;11.436;2023-05-07T09:44:44;10.10;99.90
29571;DHT22;16814;52.118;11.436;2023-05-07T09:47:14;10.10;99.90
29571;DHT22;16814;52.118;11.436;2023-05-07T09:49:49;10.10;99.90
29571;DHT22;16814;52.118;11.436;2023-05-07T09:52:17;10.00;99.90
29571;DHT22;16814;52.118;11.436;2023-05-07T09:54:45;10.00;99.90
29571;DHT22;16814;52.118;11.436;2023-05-07T09:57:13;10.00;99.90
29571;DHT22;16814;52.118;11.436;2023-05-07T09:59:42;10.10;99.90
29571;DHT22;16814;52.118;11.436;2023-05-07T10:02:09;10.20;99.90
29571;DHT22;16814;52.118;11.436;2023-05-07T10:04:35;10.30;99.90
29571;DHT22;16814;52.118;11.436;2023-05-07T10:07:04;10.40;99.90
29571;DHT22;16814;52.118;11.436;2023-05-07T10:09:33;10.50;99.90
29571;DHT22;16814;52.118;11.436;2023-05-07T10:12:02;10.60;99.90
29571;DHT22;16814;52.118;11.436;2023-05-07T10:14:29;10.60;99.90
29571;DHT22;16814;52.118;11.436;2023-05-07T10:16:58;10.60;99.90
29571;DHT22;16814;52.118;11.436;2023-05-07T10:19:36;10.70;99.90
29571;DHT22;16814;52.118;11.436;2023-05-07T10:22:06;10.70;99.90
29571;DHT22;16814;52.118;11.436;2023-05-07T10:24:35;10.70;99.90
29571;DHT22;16814;52.118;11.436;2023-05-07T10:27:06;10.80;99.90
29571;DHT22;16814;52.118;11.436;2023-05-07T10:29:58;10.80;99.90
29571;DHT22;16814;52.118;11.436;2023-05-07T10:32:51;10.80;99.90
29571;DHT22;16814;52.118;11.436;2023-05-07T10:35:31;10.90;99.90
29571;DHT22;16814;52.118;11.436;2023-05-07T10:38:00;10.90;99.90
29571;DHT22;16814;52.118;11.436;2023-05-07T10:40:28;11.10;99.90
29571;DHT22;16814;52.118;11.436;2023-05-07T10:43:02;11.00;99.90
29571;DHT22;16814;52.118;11.436;2023-05-07T10:45:29;10.90;99.90
29571;DHT22;16814;52.118;11.436;2023-05-07T10:48:16;10.90;99.90
29571;DHT22;16814;52.118;11.436;2023-05-07T10:50:43;10.90;99.90
29571;DHT22;16814;52.118;11.436;2023-05-07T10:53:21;10.90;99.90
29571;DHT22;16814;52.118;11.436;2023-05-07T10:56:29;11.00;99.90
29571;DHT22;16814;52.118;11.436;2023-05-07T10:58:58;11.10;99.90
29571;DHT22;16814;52.118;11.436;2023-05-07T11:01:56;11.00;99.90
29571;DHT22;16814;52.118;11.436;2023-05-07T11:04:26;11.00;99.90
29571;DHT22;16814;52.118;11.436;2023-05-07T11:09:57;11.00;99.90
29571;DHT22;16814;52.118;11.436;2023-05-07T11:15:14;10.90;99.90
29571;DHT22;16814;52.118;11.436;2023-05-07T11:17:59;11.00;99.90
29571;DHT22;16814;52.118;11.436;2023-05-07T11:26:12;10.80;99.90
29571;DHT22;16814;52.118;11.436;2023-05-07T11:28:42;10.80;99.90
29571;DHT22;16814;52.118;11.436;2023-05-07T11:31:21;10.80;99.90
29571;DHT22;16814;52.118;11.436;2023-05-07T11:33:54;10.90;99.90
29571;DHT22;16814;52.118;11.436;2023-05-07T11:36:23;11.00;99.90
29571;DHT22;16814;52.118;11.436;2023-05-07T11:38:51;11.10;99.90
29571;DHT22;16814;52.118;11.436;2023-05-07T11:41:20;11.10;99.90
29571;DHT22;16814;52.118;11.436;2023-05-07T11:44:00;11.20;99.90
29571;DHT22;16814;52.118;11.436;2023-05-07T11:46:27;11.20;99.90
29571;DHT22;16814;52.118;11.436;2023-05-07T11:48:54;11.30;99.90
29571;DHT22;16814;52.118;11.436;2023-05-07T11:51:24;11.30;99.90
29571;DHT22;16814;52.118;11.436;2023-05-07T11:53:54;11.30;99.90
29571;DHT22;16814;52.118;11.436;2023-05-07T11:56:20;11.30;99.90
29571;DHT22;16814;52.118;11.436;2023-05-07T11:58:49;11.30;99.90
29571;DHT22;16814;52.118;11.436;2023-05-07T12:01:16;11.30;99.90
29571;DHT22;16814;52.118;11.436;2023-05-07T12:03:52;11.30;99.90
29571;DHT22;16814;52.118;11.436;2023-05-07T12:06:19;11.40;99.90
29571;DHT22;16814;52.118;11.436;2023-05-07T12:08:45;11.50;99.90
29571;DHT22;16814;52.118;11.436;2023-05-07T12:11:37;11.50;99.90
29571;DHT22;16814;52.118;11.436;2023-05-07T12:14:06;11.60;99.90
29571;DHT22;16814;52.118;11.436;2023-05-07T12:16:34;11.70;99.90
29571;DHT22;16814;52.118;11.436;2023-05-07T12:19:00;11.70;99.90
29571;DHT22;16814;52.118;11.436;2023-05-07T12:21:34;11.70;99.90
29571;DHT22;16814;52.118;11.436;2023-05-07T12:24:02;11.70;99.90
29571;DHT22;16814;52.118;11.436;2023-05-07T12:26:30;11.80;99.90
29571;DHT22;16814;52.118;11.436;2023-05-07T12:28:57;11.90;99.90
29571;DHT22;16814;52.118;11.436;2023-05-07T12:31:26;11.90;99.90
29571;DHT22;16814;52.118;11.436;2023-05-07T12:33:52;12.00;99.90
29571;DHT22;16814;52.118;11.436;2023-05-07T12:36:20;12.00;99.90
29571;DHT22;16814;52.118;11.436;2023-05-07T12:38:50;12.10;99.90
29571;DHT22;16814;52.118;11.436;2023-05-07T12:41:17;12.20;99.90
29571;DHT22;16814;52.118;11.436;2023-05-07T12:43:46;12.20;99.90
29571;DHT22;16814;52.118;11.436;2023-05-07T12:46:13;12.20;99.90
29571;DHT22;16814;52.118;11.436;2023-05-07T12:48:48;12.20;99.90
29571;DHT22;16814;52.118;11.436;2023-05-07T12:51:15;12.30;99.90
29571;DHT22;16814;52.118;11.436;2023-05-07T12:53:41;12.20;99.90
29571;DHT22;16814;52.118;11.436;2023-05-07T12:56:10;12.10;99.90
29571;DHT22;16814;52.118;11.436;2023-05-07T12:58:36;12.10;99.90
29571;DHT22;16814;52.118;11.436;2023-05-07T13:01:08;12.20;99.90
29571;DHT22;16814;52.118;11.436;2023-05-07T13:03:49;12.20;99.90
29571;DHT22;16814;52.118;11.436;2023-05-07T13:06:20;12.10;99.90
29571;DHT22;16814;52.118;11.436;2023-05-07T13:08:47;12.00;99.90
29571;DHT22;16814;52.118;11.436;2023-05-07T13:11:15;12.10;99.90
29571;DHT22;16814;52.118;11.436;2023-05-07T13:13:43;12.10;99.90
29571;DHT22;16814;52.118;11.436;2023-05-07T13:16:10;12.20;99.90
29571;DHT22;16814;52.118;11.436;2023-05-07T13:18:41;12.20;99.90
29571;DHT22;16814;52.118;11.436;2023-05-07T13:21:10;12.30;99.90
29571;DHT22;16814;52.118;11.436;2023-05-07T13:23:41;12.30;99.90
29571;DHT22;16814;52.118;11.436;2023-05-07T13:26:07;12.30;99.90
29571;DHT22;16814;52.118;11.436;2023-05-07T13:28:34;12.40;99.90
29571;DHT22;16814;52.118;11.436;2023-05-07T13:30:59;12.50;99.90
29571;DHT22;16814;52.118;11.436;2023-05-07T13:33:27;12.50;99.90
29571;DHT22;16814;52.118;11.436;2023-05-07T13:35:55;12.50;99.90
29571;DHT22;16814;52.118;11.436;2023-05-07T13:38:24;12.40;99.90
29571;DHT22;16814;52.118;11.436;2023-05-07T13:40:53;12.50;99.90
29571;DHT22;16814;52.118;11.436;2023-05-07T13:43:19;12.50;99.90
29571;DHT22;16814;52.118;11.436;2023-05-07T13:45:56;12.40;99.90
29571;DHT22;16814;52.118;11.436;2023-05-07T13:48:25;12.50;99.90
29571;DHT22;16814;52.118;11.436;2023-05-07T13:50:54;12.50;99.90
29571;DHT22;16814;52.118;11.436;2023-05-07T13:53:22;12.60;99.90
29571;DHT22;16814;52.118;11.436;2023-05-07T13:55:50;12.60;99.90
29571;DHT22;16814;52.118;11.436;2023-05-07T13:58:17;12.50;99.90
29571;DHT22;16814;52.118;11.436;2023-05-07T14:00:44;12.30;99.90
29571;DHT22;16814;52.118;11.436;2023-05-07T14:03:14;12.30;99.90
29571;DHT22;16814;52.118;11.436;2023-05-07T14:05:41;12.20;99.90
29571;DHT22;16814;52.118;11.436;2023-05-07T14:08:13;12.20;99.90
29571;DHT22;16814;52.118;11.436;2023-05-07T14:10:41;12.30;99.90
29571;DHT22;16814;52.118;11.436;2023-05-07T14:13:12;12.30;99.90
29571;DHT22;16814;52.118;11.436;2023-05-07T14:15:38;12.20;99.90
29571;DHT22;16814;52.118;11.436;2023-05-07T14:18:06;12.20;99.90
29571;DHT22;16814;52.118;11.436;2023-05-07T14:20:35;12.30;99.90
29571;DHT22;16814;52.118;11.436;2023-05-07T14:23:04;12.30;99.90
29571;DHT22;16814;52.118;11.436;2023-05-07T14:25:42;12.40;99.90
29571;DHT22;16814;52.118;11.436;2023-05-07T14:28:09;12.30;99.90
29571;DHT22;16814;52.118;11.436;2023-05-07T14:30:49;12.40;99.90
29571;DHT22;16814;52.118;11.436;2023-05-07T14:33:17;12.50;99.90
29571;DHT22;16814;52.118;11.436;2023-05-07T14:35:44;12.40;99.90
29571;DHT22;16814;52.118;11.436;2023-05-07T14:38:14;12.40;99.90
29571;DHT22;16814;52.118;11.436;2023-05-07T14:40:42;12.50;99.90
29571;DHT22;16814;52.118;11.436;2023-05-07T14:43:13;12.40;99.90
29571;DHT22;16814;52.118;11.436;2023-05-07T14:45:40;12.50;99.90
29571;DHT22;16814;52.118;11.436;2023-05-07T14:48:07;12.50;99.90
29571;DHT22;16814;52.118;11.436;2023-05-07T14:50:35;12.60;99.90
29571;DHT22;16814;52.118;11.436;2023-05-07T14:53:03;12.70;99.90
29571;DHT22;16814;52.118;11.436;2023-05-07T14:55:31;12.70;99.90
29571;DHT22;16814;52.118;11.436;2023-05-07T14:57:57;12.70;99.90
29571;DHT22;16814;52.118;11.436;2023-05-07T15:00:24;12.80;99.90
29571;DHT22;16814;52.118;11.436;2023-05-07T15:02:52;12.90;99.90
29571;DHT22;16814;52.118;11.436;2023-05-07T15:05:20;12.90;99.90
29571;DHT22;16814;52.118;11.436;2023-05-07T15:07:47;12.90;99.90
29571;DHT22;16814;52.118;11.436;2023-05-07T15:10:15;12.90;99.90
29571;DHT22;16814;52.118;11.436;2023-05-07T15:12:44;12.70;99.90
29571;DHT22;16814;52.118;11.436;2023-05-07T15:15:11;12.70;99.90
29571;DHT22;16814;52.118;11.436;2023-05-07T15:17:37;12.60;99.90
29571;DHT22;16814;52.118;11.436;2023-05-07T15:20:05;12.60;99.90
29571;DHT22;16814;52.118;11.436;2023-05-07T15:22:36;12.60;99.90
29571;DHT22;16814;52.118;11.436;2023-05-07T15:25:04;12.70;99.90
29571;DHT22;16814;52.118;11.436;2023-05-07T15:27:32;12.80;99.90
29571;DHT22;16814;52.118;11.436;2023-05-07T15:29:59;12.80;99.90
29571;DHT22;16814;52.118;11.436;2023-05-07T15:32:26;12.90;99.90
29571;DHT22;16814;52.118;11.436;2023-05-07T15:34:52;13.00;99.90
29571;DHT22;16814;52.118;11.436;2023-05-07T15:37:19;12.90;99.90
29571;DHT22;16814;52.118;11.436;2023-05-07T15:39:47;12.90;99.90
29571;DHT22;16814;52.118;11.436;2023-05-07T15:42:15;12.70;99.90
29571;DHT22;16814;52.118;11.436;2023-05-07T15:44:46;12.60;99.90
29571;DHT22;16814;52.118;11.436;2023-05-07T15:47:14;12.50;99.90